Fremont, MI

4:05 AM EDT on August 26, 2019 (GMT -0400)
Fremont

Weather History for KFFX - May, 2019

Change the Weather History Date:

Friday, May 10, 2019

  Actual Average (WUND) Record (WUND)
Temperature  
Mean Temperature 46 °F -  
Max Temperature 52 °F - - (-1)
Min Temperature 39 °F - - (-1)
Degree Days  
Heating Degree Days 20    
Moisture  
Dew Point 35 °F    
Average Humidity 68    
Maximum Humidity 98    
Minimum Humidity 43    
Precipitation  
Precipitation 0.00 in - - ()
Sea Level Pressure  
Sea Level Pressure 30.04 in    
Wind  
Wind Speed 9 mph (NNW)    
Max Wind Speed 18 mph    
Max Gust Speed 22 mph    
Visibility 10 miles    
Events      
Averages and records for this station are not official NWS values.
T = Trace of Precipitation, MM = Missing Value Source: NWS Daily Summary

Daily Weather History Graph

Daily Weather History Graph

Search for Another Location

Airport or City:

Astronomy

May. 10, 2019 Rise Set
Actual Time 6:25 AM EDT 8:56 PM EDT
Civil Twilight 5:53 AM EDT 9:28 PM EDT
Nautical Twilight 5:12 AM EDT 10:09 PM EDT
Astronomical Twilight 4:27 AM EDT 10:54 PM EDT
Moon 11:22 AM EDT (5/10) 1:51 AM EDT (5/10)
Length of Visible Light 15h 35m
Length of Day
14h 30m
Waxing Crescent, 35% of the Moon is Illuminated
May 10
Waxing Crescent
May 11
First Quarter
May 18
Full
May 26
Last Quarter
Jun 3
New

Hourly Weather History & Observations

Time (EDT) Temp. Windchill Dew Point Humidity Pressure Visibility Wind Dir Wind Speed Gust Speed Precip Events Conditions
12:15 AM 46.4 °F 41.5 °F 44.8 °F 94% 29.85 in 10.0 mi NW 10.4 mph - N/A   Overcast
12:35 AM 45.7 °F 42.0 °F 44.6 °F 96% 29.85 in 10.0 mi NW 6.9 mph - N/A   Overcast
12:56 AM 45.5 °F 41.8 °F 44.6 °F 97% 29.87 in 10.0 mi NW 6.9 mph - N/A   Overcast
1:16 AM 45.1 °F 40.8 °F 44.4 °F 97% 29.88 in 7.0 mi NW 8.1 mph - N/A   Overcast
1:36 AM 44.8 °F 39.9 °F 44.1 °F 97% 29.88 in 10.0 mi NNW 9.2 mph - N/A   Overcast
1:55 AM 44.2 °F 38.8 °F 43.7 °F 98% 29.88 in 7.0 mi NNW 10.4 mph - N/A   Overcast
2:16 AM 43.2 °F 37.9 °F 42.3 °F 97% 29.89 in 7.0 mi NW 9.2 mph - N/A   Overcast
2:35 AM 42.6 °F 37.2 °F 41.4 °F 95% 29.89 in 10.0 mi NNW 9.2 mph - N/A   Overcast
2:55 AM 42.3 °F 36.8 °F 41.0 °F 95% 29.89 in 10.0 mi NNW 9.2 mph - N/A   Overcast
3:16 AM 42.1 °F 36.6 °F 40.3 °F 93% 29.90 in 10.0 mi NNW 9.2 mph - N/A   Overcast
3:35 AM 41.9 °F 35.9 °F 38.7 °F 88% 29.90 in 10.0 mi NNW 10.4 mph - N/A   Overcast
3:55 AM 41.9 °F 35.9 °F 37.0 °F 83% 29.90 in 10.0 mi NNW 10.4 mph - N/A   Overcast
4:16 AM 41.5 °F 35.4 °F 36.7 °F 83% 29.91 in 10.0 mi NNW 10.4 mph - N/A   Overcast
4:36 AM 41.4 °F 36.8 °F 36.7 °F 83% 29.92 in 10.0 mi NW 6.9 mph - N/A   Overcast
4:55 AM 41.4 °F 35.7 °F 37.0 °F 85% 29.92 in 10.0 mi NW 9.2 mph - N/A   Overcast
5:16 AM 41.4 °F 35.7 °F 36.7 °F 83% 29.93 in 10.0 mi NW 9.2 mph - N/A   Overcast
5:36 AM 41.0 °F 34.3 °F 35.6 °F 81% 29.94 in 10.0 mi NW 11.5 mph 17.3 mph N/A   Overcast
5:55 AM 41.0 °F 34.3 °F 35.2 °F 80% 29.94 in 10.0 mi NNW 11.5 mph - N/A   Overcast
6:15 AM 41.0 °F 35.2 °F 35.6 °F 81% 29.95 in 10.0 mi NW 9.2 mph - N/A   Overcast
6:36 AM 41.0 °F 35.8 °F 36.0 °F 82% 29.95 in 10.0 mi WNW 8.1 mph - N/A   Overcast
6:55 AM 41.0 °F 34.7 °F 35.8 °F 82% 29.95 in 10.0 mi NW 10.4 mph - N/A   Overcast
7:15 AM 41.0 °F 35.2 °F 35.1 °F 79% 29.96 in 10.0 mi NW 9.2 mph - N/A   Overcast
7:35 AM 41.0 °F 35.2 °F 35.1 °F 79% 29.97 in 10.0 mi NNW 9.2 mph - N/A   Overcast
7:56 AM 41.0 °F 35.2 °F 35.1 °F 79% 29.97 in 10.0 mi NW 9.2 mph - N/A   Overcast
8:15 AM 40.6 °F 33.8 °F 33.3 °F 75% 29.99 in 10.0 mi North 11.5 mph - N/A   Overcast
8:35 AM 40.6 °F 34.8 °F 32.4 °F 72% 30.01 in 10.0 mi NNW 9.2 mph - N/A   Overcast
8:56 AM 41.2 °F 35.0 °F 33.4 °F 74% 30.03 in 10.0 mi NNW 10.4 mph - N/A   Overcast
9:15 AM 41.5 °F 36.4 °F 33.6 °F 73% 30.05 in 10.0 mi West 8.1 mph - N/A   Overcast
9:36 AM 42.4 °F 35.7 °F 32.2 °F 67% 30.05 in 10.0 mi WNW 12.7 mph - N/A   Overcast
9:55 AM 42.8 °F 36.6 °F 32.9 °F 68% 30.05 in 10.0 mi WNW 11.5 mph - N/A   Overcast
10:16 AM 43.0 °F 36.8 °F 33.3 °F 69% 30.05 in 10.0 mi NW 11.5 mph 17.3 mph N/A   Overcast
10:35 AM 43.5 °F 36.1 °F 32.9 °F 66% 30.05 in 10.0 mi NW 16.1 mph - N/A   Overcast
10:55 AM 43.3 °F 36.5 °F 32.9 °F 67% 30.06 in 10.0 mi NW 13.8 mph 21.9 mph N/A   Overcast
11:16 AM 43.5 °F 36.4 °F 33.4 °F 68% 30.07 in 10.0 mi NW 15.0 mph 21.9 mph N/A   Overcast
11:36 AM 45.3 °F 39.3 °F 34.0 °F 65% 30.07 in 10.0 mi NW 12.7 mph 20.7 mph N/A   Overcast
11:55 AM 45.1 °F 37.6 °F 33.3 °F 63% 30.07 in 10.0 mi NW 18.4 mph - N/A   Overcast
12:15 PM 46.0 °F 39.9 °F 33.8 °F 62% 30.09 in 10.0 mi NW 13.8 mph - N/A   Overcast
12:36 PM 47.7 °F - 33.1 °F 57% 30.10 in 10.0 mi WNW 12.7 mph 21.9 mph N/A   Mostly Cloudy
12:55 PM 47.8 °F - 33.6 °F 58% 30.09 in 10.0 mi NNW 12.7 mph - N/A   Mostly Cloudy
1:16 PM 48.2 °F - 33.3 °F 56% 30.09 in 10.0 mi NNW 12.7 mph 18.4 mph N/A   Mostly Cloudy
1:36 PM 48.0 °F - 33.6 °F 57% 30.09 in 10.0 mi North 13.8 mph 18.4 mph N/A   Mostly Cloudy
1:55 PM 48.4 °F - 34.2 °F 58% 30.10 in 10.0 mi NNW 15.0 mph 20.7 mph N/A   Scattered Clouds
2:15 PM 50.0 °F - 34.2 °F 55% 30.09 in 10.0 mi NNW 9.2 mph 16.1 mph N/A   Scattered Clouds
2:36 PM 50.4 °F - 34.7 °F 55% 30.09 in 10.0 mi NNW 11.5 mph - N/A   Scattered Clouds
2:56 PM 50.4 °F - 34.2 °F 54% 30.09 in 10.0 mi North 8.1 mph 18.4 mph N/A   Scattered Clouds
3:35 PM 51.4 °F - 33.6 °F 51% 30.10 in 10.0 mi NW 10.4 mph 16.1 mph N/A   Scattered Clouds
3:56 PM 51.8 °F - 33.3 °F 49% 30.09 in 10.0 mi NNW 8.1 mph - N/A   Scattered Clouds
4:15 PM 52.2 °F - 33.6 °F 49% 30.10 in 10.0 mi NNW 6.9 mph - N/A   Scattered Clouds
4:35 PM 52.3 °F - 32.9 °F 48% 30.10 in 10.0 mi North 6.9 mph - N/A   Scattered Clouds
4:56 PM 52.3 °F - 33.3 °F 48% 30.11 in 10.0 mi NNW 8.1 mph - N/A   Scattered Clouds
5:15 PM 52.3 °F - 33.1 °F 48% 30.11 in 10.0 mi NNW 13.8 mph - N/A   Clear
5:35 PM 52.9 °F - 33.3 °F 47% 30.12 in 10.0 mi NNW 13.8 mph - N/A   Scattered Clouds
5:56 PM 52.0 °F - 32.5 °F 48% 30.12 in 10.0 mi NNW 6.9 mph - N/A   Clear
6:15 PM 52.7 °F - 31.8 °F 45% 30.13 in 10.0 mi North 10.4 mph - N/A   Clear
6:35 PM 52.2 °F - 31.6 °F 46% 30.13 in 10.0 mi NNW 10.4 mph - N/A   Clear
6:56 PM 52.2 °F - 31.8 °F 46% 30.14 in 10.0 mi NNW 10.4 mph 16.1 mph N/A   Clear
7:16 PM 51.8 °F - 32.0 °F 47% 30.14 in 10.0 mi NNW 12.7 mph - N/A   Clear
7:36 PM 51.8 °F - 31.8 °F 47% 30.14 in 10.0 mi NNW 5.8 mph - N/A   Clear
7:55 PM 51.3 °F - 30.0 °F 44% 30.14 in 10.0 mi North 8.1 mph - N/A   Clear
8:16 PM 50.9 °F - 29.3 °F 43% 30.14 in 10.0 mi NE 5.8 mph - N/A   Clear
8:36 PM 49.5 °F - 30.2 °F 48% 30.15 in 10.0 mi North 3.5 mph - N/A   Clear
8:55 PM 48.9 °F - 31.5 °F 51% 30.15 in 10.0 mi Calm Calm - N/A   Clear
9:15 PM 47.1 °F - 32.4 °F 57% 30.16 in 10.0 mi Calm Calm - N/A   Clear
9:36 PM 45.5 °F - 31.8 °F 59% 30.16 in 10.0 mi Calm Calm - N/A   Clear
9:55 PM 43.5 °F - 32.2 °F 64% 30.16 in 10.0 mi Calm Calm - N/A   Clear
10:15 PM 43.7 °F - 33.6 °F 68% 30.16 in 10.0 mi Calm Calm - N/A   Clear
10:36 PM 43.5 °F - 32.0 °F 64% 30.16 in 10.0 mi Calm Calm - N/A   Clear
10:55 PM 42.6 °F - 33.1 °F 69% 30.17 in 10.0 mi Calm Calm - N/A   Clear
11:15 PM 41.4 °F - 33.6 °F 74% 30.18 in 10.0 mi Calm Calm - N/A   Clear
11:36 PM 39.9 °F - 33.4 °F 78% 30.18 in 10.0 mi Calm Calm - N/A   Clear
11:56 PM 41.9 °F - 34.0 °F 73% 30.17 in 10.0 mi Calm Calm - N/A   Clear